METAR Data
IDs: Format: Raw Decoded Include TAF

Data at: 1525 UTC 22 Apr 2021

KMKY 221456Z AUTO 06011KT 10SM FEW070 OVC110 26/14 A3010 RMK AO2 SLP191 T02560144 51008 TSNO $
KMKY 221356Z AUTO 03011KT 10SM CLR 23/15 A3009 RMK AO2 SLP189 T02330150 TSNO $
KMKY 221256Z AUTO 02010KT 10SM BKN075 BKN120 21/16 A3008 RMK AO2 SLP187 T02110161 TSNO $
KMKY 221156Z AUTO 01007KT 10SM OVC080 20/16 A3007 RMK AO2 SLP182 70002 T02000156 10222 20200 53017 TSNO $
KMKY 221056Z AUTO 35004KT 10SM OVC075 20/16 A3005 RMK AO2 SLP177 T02000156 TSNO $
KMKY 220956Z AUTO 36005KT 10SM OVC075 20/16 A3003 RMK AO2 SLP170 T02000156 TSNO $
KMKY 220856Z AUTO 36005KT 10SM CLR 20/15 A3002 RMK AO2 SLP166 T02000150 55002 TSNO $
KMKY 220756Z AUTO 35005KT 10SM CLR 21/15 A3002 RMK AO2 SLP164 T02110150 TSNO $
KMKY 220656Z AUTO 36004KT 10SM CLR 22/17 A3002 RMK AO2 SLP166 T02170167 TSNO $
KMKY 220556Z AUTO 34006KT 10SM FEW070 22/18 A3003 RMK AO2 SLP168 T02220183 10239 20222 58005 TSNO $
KMKY 220456Z AUTO 00000KT 10SM OVC110 23/19 A3004 RMK AO2 SLP172 T02280189 TSNO $
KMKY 220356Z AUTO 33003KT 10SM FEW110 23/19 A3004 RMK AO2 SLP173 T02280194 402720211 TSNO $
KMKY 220256Z AUTO 29005KT 10SM CLR 23/19 A3004 RMK AO2 SLP174 T02330194 53013 TSNO $
KMKY 220156Z AUTO 24004KT 10SM FEW080 SCT120 23/20 A3003 RMK AO2 SLP168 T02280200 TSNO $
KMKY 220056Z AUTO 30004KT 10SM FEW090 SCT110 24/19 A3001 RMK AO2 SLP163 T02390194 TSNO $
KMKY 212356Z AUTO 28003KT 10SM CLR 24/19 A3001 RMK AO2 RAB01E29 SLP161 P0000 60000 T02390194 10261 20239 53003 TSNO $
KMKY 212256Z AUTO 32009KT 10SM FEW044 BKN110 24/19 A3000 RMK AO2 RAB31E53 SLP157 P0000 T02440194 TSNO $
KMKY 212156Z AUTO 26005KT 10SM FEW050 SCT090 26/21 A3001 RMK AO2 SLP160 T02560206 TSNO $
KMKY 212056Z AUTO 28005KT 10SM SCT015 26/22 A3000 RMK AO2 SLP158 60000 T02610222 56009 TSNO $
KMKY 212053Z AUTO 28005KT 10SM SCT015 26/22 A3000 RMK AO2 TSNO $
KMKY 212036Z AUTO 29007KT 10SM BKN013 26/23 A3000 RMK AO2 TSNO $
KMKY 212006Z AUTO 28004KT 10SM BKN017 26/22 A3000 RMK AO2 TSNO $
KMKY 211956Z AUTO 27003KT 10SM SCT015 BKN038 26/23 A3000 RMK AO2 SLP158 T02560228 TSNO $
KMKY 211856Z AUTO 00000KT 10SM CLR 25/22 A3000 RMK AO2 RAE12 SLP158 P0000 T02500222 TSNO $
KMKY 211810Z AUTO 04004KT 10SM -RA FEW025 SCT033 BKN060 24/22 A3000 RMK AO2 PRESFR P0000 TSNO $
KMKY 211756Z AUTO VRB03KT 10SM -RA FEW025 BKN029 OVC060 24/22 A3003 RMK AO2 SLP167 P0002 60002 T02390222 10272 20222 58003 TSNO $
KMKY 211656Z AUTO 34005KT 10SM -RA FEW015 SCT027 OVC032 24/22 A3004 RMK AO2 RAE06B46 SLP174 P0000 T02440217 TSNO $
KMKY 211556Z AUTO 01004KT 10SM -RA BKN017 OVC025 25/22 A3003 RMK AO2 RAB41 SLP170 P0000 T02500222 TSNO $
KMKY 211525Z AUTO 31005KT 9SM BKN015 OVC055 27/23 A3005 RMK AO2 TSNO $
KMKY 211456Z AUTO 28003KT 10SM FEW045 BKN055 27/23 A3003 RMK AO2 SLP170 T02670228 51013 TSNO $
KMKY 211356Z AUTO 25005KT 10SM FEW017 27/23 A3002 RMK AO2 SLP166 T02670228 TSNO $
KMKY 211352Z AUTO 24005KT 10SM SCT015 27/23 A3002 RMK AO2 TSNO $
KMKY 211330Z AUTO 29004KT 10SM BKN015 27/23 A3002 RMK AO2 TSNO $
KMKY 211256Z AUTO 00000KT 10SM CLR 26/22 A3000 RMK AO2 SLP157 T02610222 TSNO $
KMKY 211156Z AUTO 00000KT 10SM CLR 22/21 A3000 RMK AO2 SLP158 T02220211 10222 20211 53006 TSNO $
KMKY 211056Z AUTO 00000KT 10SM FEW035 21/20 A2998 RMK AO2 SLP150 T02110200 TSNO $
KMKY 210956Z AUTO 00000KT 10SM CLR 22/21 A2997 RMK AO2 SLP149 T02170206 TSNO $
KMKY 210856Z AUTO 00000KT 10SM BKN048 BKN060 22/21 A2998 RMK AO2 SLP152 T02220211 51002 TSNO $
KMKY 210756Z AUTO 00000KT 10SM FEW042 22/21 A2998 RMK AO2 SLP152 T02220206 TSNO $
KMKY 210656Z AUTO 00000KT 10SM OVC039 22/21 A2998 RMK AO2 SLP151 T02170206 TSNO $
KMKY 210556Z AUTO 00000KT 10SM CLR 22/21 A2998 RMK AO2 SLP150 T02220211 10256 20217 58006 TSNO $
KMKY 210456Z AUTO 00000KT 10SM CLR 23/21 A2999 RMK AO2 SLP156 T02280211 TSNO $
KMKY 210356Z AUTO 00000KT 10SM CLR 23/21 A3000 RMK AO2 SLP159 T02330211 402780217 TSNO $